createdAt,value
2023-05-07T00:00:23.022Z,10.55
2023-05-07T00:02:50.280Z,7.43
2023-05-07T00:05:17.598Z,9.52
2023-05-07T00:07:44.839Z,10.38
2023-05-07T00:10:13.940Z,8.68
2023-05-07T00:12:41.897Z,13.75
2023-05-07T00:15:09.926Z,12.38
2023-05-07T00:17:37.717Z,12.32
2023-05-07T00:20:06.102Z,12.75
2023-05-07T00:22:33.710Z,11.43
2023-05-07T00:25:01.321Z,17.10
2023-05-07T00:27:28.511Z,14.15
2023-05-07T00:29:55.874Z,13.77
2023-05-07T00:32:23.100Z,13.95
2023-05-07T00:34:52.132Z,13.80
2023-05-07T00:37:19.560Z,10.45
2023-05-07T00:39:46.806Z,11.98
2023-05-07T00:42:14.234Z,13.95
2023-05-07T00:44:41.631Z,14.32
2023-05-07T00:47:08.953Z,13.70
2023-05-07T00:49:41.363Z,14.68
2023-05-07T00:52:12.914Z,15.90
2023-05-07T00:54:41.261Z,16.77
2023-05-07T00:57:09.993Z,12.75
2023-05-07T00:59:37.353Z,14.85
2023-05-07T01:02:04.895Z,15.73
2023-05-07T01:04:32.320Z,17.42
2023-05-07T01:07:01.885Z,12.93
2023-05-07T01:09:30.144Z,13.18
2023-05-07T01:11:58.908Z,15.05
2023-05-07T01:14:26.842Z,11.48
2023-05-07T01:16:54.708Z,12.90
2023-05-07T01:19:24.370Z,14.95
2023-05-07T01:21:57.176Z,18.92
2023-05-07T01:24:25.375Z,16.02
2023-05-07T01:26:52.863Z,18.13
2023-05-07T01:29:20.396Z,17.30
2023-05-07T01:31:51.832Z,18.75
2023-05-07T01:34:21.277Z,18.35
2023-05-07T01:36:49.878Z,19.05
2023-05-07T01:39:18.167Z,28.52
2023-05-07T01:41:46.209Z,14.38
2023-05-07T01:44:14.784Z,14.88
2023-05-07T01:46:42.083Z,22.77
2023-05-07T01:49:10.045Z,17.98
2023-05-07T01:51:37.928Z,21.50
2023-05-07T01:54:05.222Z,17.08
2023-05-07T01:56:32.965Z,17.25
2023-05-07T01:59:00.282Z,18.10
2023-05-07T02:01:29.033Z,15.85
2023-05-07T02:03:56.406Z,17.17
2023-05-07T02:06:26.613Z,20.58
2023-05-07T02:08:58.434Z,20.00
2023-05-07T02:11:26.351Z,11.43
2023-05-07T02:13:54.111Z,19.52
2023-05-07T02:16:22.465Z,17.80
2023-05-07T02:18:50.230Z,14.23
2023-05-07T02:21:17.456Z,16.17
2023-05-07T02:23:44.779Z,13.82
2023-05-07T02:26:12.258Z,16.70
2023-05-07T02:28:39.646Z,17.67
2023-05-07T02:31:07.591Z,24.73
2023-05-07T02:33:36.384Z,20.67
2023-05-07T02:36:08.465Z,22.42
2023-05-07T02:38:38.068Z,17.23
2023-05-07T02:41:05.966Z,16.55
2023-05-07T02:43:33.395Z,21.20
2023-05-07T02:46:04.128Z,21.67
2023-05-07T02:48:31.541Z,20.90
2023-05-07T02:50:59.743Z,16.98
2023-05-07T02:53:27.652Z,15.95
2023-05-07T02:55:56.356Z,12.85
2023-05-07T02:58:23.940Z,14.63
2023-05-07T03:00:51.979Z,15.60
2023-05-07T03:03:21.155Z,19.90
2023-05-07T03:05:48.473Z,16.80
2023-05-07T03:08:15.862Z,15.13
2023-05-07T03:10:43.055Z,19.73
2023-05-07T03:13:11.047Z,19.30
2023-05-07T03:15:38.275Z,22.00
2023-05-07T03:18:05.584Z,22.90
2023-05-07T03:20:33.145Z,19.00
2023-05-07T03:23:00.716Z,22.60
2023-05-07T03:25:28.346Z,21.55
2023-05-07T03:27:55.745Z,18.13
2023-05-07T03:30:26.372Z,16.30
2023-05-07T03:32:53.796Z,18.45
2023-05-07T03:35:21.679Z,17.88
2023-05-07T03:37:49.194Z,16.13
2023-05-07T03:40:16.764Z,21.98
2023-05-07T03:42:49.334Z,19.17
2023-05-07T03:45:19.010Z,21.25
2023-05-07T03:47:52.559Z,18.52
2023-05-07T03:50:21.921Z,19.25
2023-05-07T03:52:49.702Z,14.70
2023-05-07T03:55:19.744Z,13.20
2023-05-07T03:57:52.007Z,14.27
2023-05-07T04:00:21.414Z,17.05
2023-05-07T04:02:48.755Z,19.73
2023-05-07T04:05:22.965Z,15.00
2023-05-07T04:07:53.574Z,13.85
2023-05-07T04:10:27.071Z,15.20
2023-05-07T04:12:58.161Z,18.10
2023-05-07T04:15:27.083Z,14.90
2023-05-07T04:17:54.414Z,15.25
2023-05-07T04:20:23.599Z,10.70
2023-05-07T04:22:58.144Z,11.43
2023-05-07T04:25:27.739Z,14.52
2023-05-07T04:28:01.108Z,16.92
2023-05-07T04:30:30.079Z,14.40
2023-05-07T04:32:58.104Z,13.85
2023-05-07T04:35:28.237Z,14.00
2023-05-07T04:37:56.049Z,13.25
2023-05-07T04:40:23.628Z,14.05
2023-05-07T04:42:51.389Z,14.70
2023-05-07T04:45:19.285Z,12.40
2023-05-07T04:47:48.224Z,12.43
2023-05-07T04:50:15.657Z,20.30
2023-05-07T04:52:44.777Z,12.60
2023-05-07T04:55:12.756Z,14.30
2023-05-07T04:57:42.534Z,10.77
2023-05-07T05:00:15.421Z,14.02
2023-05-07T05:02:45.671Z,13.38
2023-05-07T05:05:16.296Z,15.20
2023-05-07T05:07:44.722Z,16.50
2023-05-07T05:10:12.623Z,14.70
2023-05-07T05:12:41.795Z,13.82
2023-05-07T05:15:10.085Z,13.93
2023-05-07T05:17:38.068Z,13.02
2023-05-07T05:20:07.020Z,12.10
2023-05-07T05:22:35.222Z,11.68
2023-05-07T05:25:03.072Z,10.15
2023-05-07T05:27:30.732Z,12.15
2023-05-07T05:29:58.038Z,10.70
2023-05-07T05:32:25.523Z,12.57
2023-05-07T05:34:56.635Z,15.60
2023-05-07T05:37:24.185Z,11.57
2023-05-07T05:39:51.912Z,13.13
2023-05-07T05:42:19.756Z,10.68
2023-05-07T05:44:46.903Z,12.98
2023-05-07T05:47:14.873Z,11.88
2023-05-07T05:49:44.230Z,11.52
2023-05-07T05:52:15.306Z,15.60
2023-05-07T05:54:42.656Z,15.15
2023-05-07T05:57:10.082Z,11.43
2023-05-07T05:59:37.835Z,12.43
2023-05-07T06:02:05.108Z,14.63
2023-05-07T06:04:32.429Z,11.77
2023-05-07T06:06:59.804Z,12.00
2023-05-07T06:09:27.525Z,11.63
2023-05-07T06:11:54.671Z,12.32
2023-05-07T06:14:22.778Z,15.43
2023-05-07T06:16:50.252Z,14.18
2023-05-07T06:19:19.194Z,14.02
2023-05-07T06:21:46.521Z,16.75
2023-05-07T06:24:14.105Z,10.20
2023-05-07T06:26:41.280Z,12.68
2023-05-07T06:29:09.036Z,16.98
2023-05-07T06:31:36.256Z,13.20
2023-05-07T06:34:07.244Z,11.70
2023-05-07T06:36:38.053Z,12.65
2023-05-07T06:39:14.891Z,11.20
2023-05-07T06:41:42.152Z,11.77
2023-05-07T06:44:18.567Z,14.38
2023-05-07T06:46:49.537Z,13.13
2023-05-07T06:49:16.973Z,9.95
2023-05-07T06:51:44.074Z,9.25
2023-05-07T06:54:11.536Z,8.00
2023-05-07T06:56:40.973Z,9.18
2023-05-07T06:59:08.912Z,14.00
2023-05-07T07:01:40.337Z,9.48
2023-05-07T07:04:09.189Z,9.82
2023-05-07T07:06:37.742Z,12.15
2023-05-07T07:09:09.696Z,11.50
2023-05-07T07:11:36.938Z,7.82
2023-05-07T07:14:06.123Z,11.40
2023-05-07T07:16:37.820Z,9.98
2023-05-07T07:19:05.103Z,11.52
2023-05-07T07:21:33.090Z,11.13
2023-05-07T07:24:00.627Z,10.70
2023-05-07T07:26:27.817Z,8.23
2023-05-07T07:28:55.580Z,12.80
2023-05-07T07:31:23.942Z,8.93
2023-05-07T07:33:53.292Z,12.07
2023-05-07T07:36:23.360Z,12.35
2023-05-07T07:38:51.316Z,12.63
2023-05-07T07:41:18.859Z,9.27
2023-05-07T07:43:49.656Z,10.90
2023-05-07T07:46:18.678Z,11.90
2023-05-07T07:48:46.051Z,10.50
2023-05-07T07:51:13.673Z,10.80
2023-05-07T07:53:42.277Z,11.38
2023-05-07T07:56:09.477Z,8.40
2023-05-07T07:58:37.797Z,11.65
2023-05-07T08:01:05.546Z,14.02
2023-05-07T08:03:33.708Z,11.70
2023-05-07T08:06:02.962Z,18.25
2023-05-07T08:08:31.762Z,14.98
2023-05-07T08:10:59.019Z,12.30
2023-05-07T08:13:31.376Z,12.95
2023-05-07T08:15:59.859Z,14.38
2023-05-07T08:18:29.519Z,12.60
2023-05-07T08:20:58.688Z,14.82
2023-05-07T08:23:27.706Z,10.50
2023-05-07T08:25:55.377Z,14.70
2023-05-07T08:28:25.898Z,12.57
2023-05-07T08:30:53.370Z,15.13
2023-05-07T08:33:21.037Z,18.23
2023-05-07T08:35:48.541Z,18.00
2023-05-07T08:38:16.617Z,12.27
2023-05-07T08:40:44.317Z,12.05
2023-05-07T08:43:19.766Z,14.50
2023-05-07T08:45:50.646Z,11.48
2023-05-07T08:48:26.546Z,15.98
2023-05-07T08:51:01.213Z,10.23
2023-05-07T08:53:28.890Z,15.15
2023-05-07T08:55:56.915Z,14.75
2023-05-07T08:58:24.505Z,13.43
2023-05-07T09:00:54.449Z,12.85
2023-05-07T09:03:23.169Z,15.32
2023-05-07T09:05:53.406Z,12.55
2023-05-07T09:08:27.454Z,11.65
2023-05-07T09:10:57.399Z,12.60
2023-05-07T09:13:25.116Z,16.25
2023-05-07T09:15:52.731Z,12.82
2023-05-07T09:18:21.829Z,15.50
2023-05-07T09:20:50.501Z,16.88
2023-05-07T09:23:21.908Z,19.42
2023-05-07T09:25:49.690Z,17.73
2023-05-07T09:28:24.248Z,10.82
2023-05-07T09:30:51.618Z,20.73
2023-05-07T09:33:20.453Z,21.10
2023-05-07T09:35:53.207Z,19.27
2023-05-07T09:38:23.660Z,14.60
2023-05-07T09:40:59.449Z,15.40
2023-05-07T09:43:27.119Z,14.52
2023-05-07T09:46:00.770Z,15.20
2023-05-07T09:48:30.865Z,16.17
2023-05-07T09:51:02.982Z,13.00
2023-05-07T09:53:35.841Z,16.48
2023-05-07T09:56:06.861Z,19.77
2023-05-07T09:58:38.149Z,16.25
2023-05-07T10:01:07.089Z,16.65
2023-05-07T10:03:37.875Z,17.58
2023-05-07T10:06:06.917Z,16.15
2023-05-07T10:08:36.728Z,15.38
2023-05-07T10:11:07.139Z,17.48
2023-05-07T10:13:36.668Z,18.00
2023-05-07T10:16:05.919Z,20.05
2023-05-07T10:18:41.627Z,17.70
2023-05-07T10:21:18.975Z,16.45
2023-05-07T10:23:52.695Z,15.88
2023-05-07T10:26:24.880Z,26.42
2023-05-07T10:28:57.648Z,19.73
2023-05-07T10:31:37.959Z,17.95
2023-05-07T10:34:11.128Z,19.23
2023-05-07T10:36:40.710Z,17.70
2023-05-07T10:39:09.203Z,23.52
2023-05-07T10:41:38.398Z,18.80
2023-05-07T10:44:05.853Z,18.98
2023-05-07T10:46:36.695Z,26.83
2023-05-07T10:49:12.685Z,20.40
2023-05-07T10:52:07.051Z,19.52
2023-05-07T10:54:37.640Z,19.48
2023-05-07T10:57:13.049Z,18.08
2023-05-07T10:59:42.301Z,17.00
2023-05-07T11:02:17.682Z,24.58
2023-05-07T11:04:47.127Z,23.38
2023-05-07T11:07:26.747Z,19.58
2023-05-07T11:10:02.562Z,22.80
2023-05-07T11:12:34.946Z,17.85
2023-05-07T11:15:05.422Z,16.48
2023-05-07T11:17:53.927Z,21.25
2023-05-07T11:20:21.998Z,18.27
2023-05-07T11:22:55.492Z,20.58
2023-05-07T11:25:31.104Z,18.02
2023-05-07T11:28:08.212Z,16.55
2023-05-07T11:30:36.966Z,17.48
2023-05-07T11:33:07.030Z,18.58
2023-05-07T11:35:37.108Z,18.15
2023-05-07T11:38:07.561Z,17.52
2023-05-07T11:40:49.571Z,16.38
2023-05-07T11:43:17.163Z,11.20
2023-05-07T11:45:45.619Z,12.70
2023-05-07T11:48:14.634Z,13.48
2023-05-07T11:50:45.354Z,20.02
2023-05-07T11:53:14.114Z,10.23
2023-05-07T11:55:42.023Z,10.57
2023-05-07T11:58:11.976Z,10.48
2023-05-07T12:00:39.337Z,9.25
2023-05-07T12:03:07.224Z,10.10
2023-05-07T12:05:35.275Z,12.18
2023-05-07T12:08:02.698Z,10.93
2023-05-07T12:10:29.957Z,9.10
2023-05-07T12:12:57.438Z,8.73
2023-05-07T12:15:24.825Z,10.57
2023-05-07T12:17:53.787Z,8.40
2023-05-07T12:20:21.228Z,11.05
2023-05-07T12:22:51.608Z,11.75
2023-05-07T12:25:21.358Z,11.75
2023-05-07T12:27:53.993Z,11.63
2023-05-07T12:30:21.420Z,11.82
2023-05-07T12:32:53.467Z,9.27
2023-05-07T12:35:29.343Z,8.60
2023-05-07T12:38:01.040Z,9.30
2023-05-07T12:40:31.702Z,8.30
2023-05-07T12:43:00.940Z,11.02
2023-05-07T12:45:28.514Z,9.75
2023-05-07T12:47:55.946Z,14.25
2023-05-07T12:50:24.685Z,13.95
2023-05-07T12:52:51.976Z,12.82
2023-05-07T12:55:19.486Z,13.98
2023-05-07T12:57:52.703Z,10.10
2023-05-07T13:03:01.167Z,14.30
2023-05-07T13:05:28.502Z,13.32
2023-05-07T13:07:56.944Z,15.05
2023-05-07T13:10:25.571Z,13.20
2023-05-07T13:12:53.788Z,13.07
2023-05-07T13:15:21.550Z,11.52
2023-05-07T13:17:49.033Z,15.63
2023-05-07T13:20:16.703Z,12.82
2023-05-07T13:22:44.199Z,10.65
2023-05-07T13:25:11.671Z,13.55
2023-05-07T13:27:39.305Z,11.80
2023-05-07T13:30:07.902Z,10.32
2023-05-07T13:32:35.346Z,10.55
2023-05-07T13:35:02.821Z,11.93
2023-05-07T13:37:30.331Z,12.82
2023-05-07T13:39:57.626Z,10.27
2023-05-07T13:42:25.023Z,12.63
2023-05-07T13:44:52.358Z,14.95
2023-05-07T13:47:20.743Z,14.82
2023-05-07T13:49:50.836Z,13.95
2023-05-07T13:52:18.628Z,13.18
2023-05-07T13:54:46.177Z,12.18
2023-05-07T13:57:13.589Z,14.93
2023-05-07T13:59:41.732Z,13.63
2023-05-07T14:02:10.261Z,18.38
2023-05-07T14:04:39.581Z,17.90
2023-05-07T14:07:07.129Z,18.25
2023-05-07T14:09:34.359Z,22.85
2023-05-07T14:12:02.584Z,18.95
2023-05-07T14:14:30.043Z,20.15
2023-05-07T14:16:57.500Z,21.60
2023-05-07T14:19:24.987Z,18.98
2023-05-07T14:21:52.385Z,18.08
2023-05-07T14:24:34.605Z,16.00
2023-05-07T14:27:05.759Z,14.60
2023-05-07T14:29:33.106Z,15.43
2023-05-07T14:32:00.427Z,16.13
2023-05-07T14:34:27.774Z,12.48
2023-05-07T14:36:55.113Z,13.18
2023-05-07T14:39:22.498Z,14.70
2023-05-07T14:41:49.982Z,14.60
2023-05-07T14:44:17.197Z,15.15
2023-05-07T14:46:44.646Z,13.25
2023-05-07T14:49:18.116Z,15.65
2023-05-07T14:51:46.456Z,16.63
2023-05-07T14:54:15.022Z,19.75
2023-05-07T14:56:42.990Z,16.38
2023-05-07T14:59:11.516Z,20.42
2023-05-07T15:01:41.603Z,16.67
2023-05-07T15:04:09.195Z,15.75
2023-05-07T15:06:36.671Z,14.00
2023-05-07T15:09:04.231Z,16.05
2023-05-07T15:11:31.831Z,20.95
2023-05-07T15:13:59.071Z,18.67
2023-05-07T15:16:26.698Z,20.92
2023-05-07T15:18:54.115Z,17.77
2023-05-07T15:21:21.781Z,23.45
2023-05-07T15:23:49.019Z,22.88
2023-05-07T15:26:16.481Z,21.38
2023-05-07T15:28:44.026Z,17.02
2023-05-07T15:31:11.458Z,19.05
2023-05-07T15:33:38.943Z,18.17
2023-05-07T15:36:07.021Z,15.32
2023-05-07T15:38:34.269Z,15.95
2023-05-07T15:41:01.769Z,17.50
2023-05-07T15:43:29.155Z,15.00
2023-05-07T15:45:57.253Z,14.80
2023-05-07T15:48:24.732Z,16.63
2023-05-07T15:50:52.151Z,17.25
2023-05-07T15:53:19.391Z,18.33
2023-05-07T15:55:47.764Z,16.95
2023-05-07T15:58:20.436Z,19.90
2023-05-07T16:00:47.988Z,19.40
2023-05-07T16:03:15.325Z,17.75
2023-05-07T16:05:42.739Z,16.80
2023-05-07T16:08:10.562Z,13.95
2023-05-07T16:10:37.933Z,14.07
2023-05-07T16:13:05.248Z,12.15
2023-05-07T16:15:32.781Z,18.50
2023-05-07T16:18:00.181Z,17.67
2023-05-07T16:20:30.856Z,17.85
2023-05-07T16:22:58.870Z,16.48
2023-05-07T16:25:26.332Z,19.60
2023-05-07T16:27:54.933Z,21.90
2023-05-07T16:30:22.592Z,15.60
2023-05-07T16:32:49.940Z,16.45
2023-05-07T16:35:17.752Z,14.80
2023-05-07T16:37:45.070Z,17.30
2023-05-07T16:40:12.828Z,16.67
2023-05-07T16:42:40.223Z,15.23
2023-05-07T16:45:09.040Z,16.02
2023-05-07T16:47:36.454Z,19.17
2023-05-07T16:50:05.969Z,15.30
2023-05-07T16:52:33.517Z,13.52
2023-05-07T16:55:01.741Z,13.57
2023-05-07T16:57:30.605Z,14.88
2023-05-07T16:59:59.248Z,13.75
2023-05-07T17:02:26.611Z,16.27
2023-05-07T17:04:54.086Z,14.63
2023-05-07T17:07:21.441Z,11.93
2023-05-07T17:09:48.871Z,13.85
2023-05-07T17:12:16.460Z,13.82
2023-05-07T17:14:43.949Z,13.07
2023-05-07T17:17:11.233Z,14.10
2023-05-07T17:19:40.073Z,12.38
2023-05-07T17:22:07.543Z,15.32
2023-05-07T17:24:34.946Z,11.88
2023-05-07T17:27:04.620Z,13.55
2023-05-07T17:29:32.060Z,9.15
2023-05-07T17:31:59.437Z,12.38
2023-05-07T17:34:26.872Z,11.18
2023-05-07T17:36:54.829Z,16.20
2023-05-07T17:39:22.170Z,14.57
2023-05-07T17:41:49.400Z,11.57
2023-05-07T17:44:16.837Z,12.20
2023-05-07T17:46:44.167Z,10.65
2023-05-07T17:49:11.597Z,9.05
2023-05-07T17:51:52.701Z,13.80
2023-05-07T17:54:21.754Z,14.63
2023-05-07T17:56:49.148Z,62.08
2023-05-07T17:59:16.591Z,74.80
2023-05-07T18:01:44.405Z,32.05
2023-05-07T18:04:11.997Z,27.92
2023-05-07T18:06:40.088Z,19.20
2023-05-07T18:09:07.695Z,12.45
2023-05-07T18:11:35.226Z,9.88
2023-05-07T18:14:02.957Z,13.30
2023-05-07T18:16:30.286Z,12.30
2023-05-07T18:18:57.895Z,9.90
2023-05-07T18:21:25.249Z,10.65
2023-05-07T18:23:52.687Z,8.57
2023-05-07T18:26:20.088Z,9.75
2023-05-07T18:28:47.640Z,7.00
2023-05-07T18:31:14.958Z,6.18
2023-05-07T18:33:42.491Z,8.20
2023-05-07T18:36:09.721Z,6.18
2023-05-07T18:38:37.121Z,5.38
2023-05-07T18:41:05.701Z,6.00
2023-05-07T18:43:34.181Z,7.93
2023-05-07T18:46:02.051Z,7.75
2023-05-07T18:48:29.625Z,8.27
2023-05-07T18:50:57.161Z,8.10
2023-05-07T18:53:24.720Z,6.45
2023-05-07T18:55:53.512Z,6.13
2023-05-07T18:58:21.032Z,8.95
2023-05-07T19:00:49.270Z,8.07
2023-05-07T19:03:18.003Z,8.75
2023-05-07T19:05:46.064Z,7.40
2023-05-07T19:08:13.691Z,8.55
2023-05-07T19:10:41.162Z,6.55
2023-05-07T19:13:08.608Z,9.40
2023-05-07T19:15:35.960Z,8.38
2023-05-07T19:18:03.697Z,8.95
2023-05-07T19:20:30.986Z,5.57
2023-05-07T19:22:58.470Z,7.45
2023-05-07T19:25:25.898Z,7.25
2023-05-07T19:27:53.288Z,7.40
2023-05-07T19:30:20.579Z,11.35
2023-05-07T19:32:48.098Z,8.70
2023-05-07T19:35:16.042Z,6.95
2023-05-07T19:37:43.600Z,8.65
2023-05-07T19:40:11.705Z,6.18
2023-05-07T19:42:39.079Z,7.88
2023-05-07T19:45:07.138Z,5.88
2023-05-07T19:47:34.736Z,6.40
2023-05-07T19:50:02.075Z,5.45
2023-05-07T19:52:29.399Z,6.20
2023-05-07T19:54:56.990Z,7.20
2023-05-07T19:57:24.585Z,6.95
2023-05-07T19:59:51.903Z,7.20
2023-05-07T20:02:19.485Z,6.70
2023-05-07T20:04:46.824Z,8.10
2023-05-07T20:07:14.365Z,7.32
2023-05-07T20:09:42.259Z,6.28
2023-05-07T20:12:09.669Z,7.32
2023-05-07T20:14:36.954Z,6.70
2023-05-07T20:17:04.414Z,5.28
2023-05-07T20:19:34.019Z,7.55
2023-05-07T20:22:03.027Z,8.25
2023-05-07T20:24:30.473Z,7.03
2023-05-07T20:26:57.904Z,7.05
2023-05-07T20:29:25.226Z,7.15
2023-05-07T20:31:52.717Z,6.25
2023-05-07T20:34:20.470Z,5.70
2023-05-07T20:36:47.991Z,7.93
2023-05-07T20:39:16.308Z,5.65
2023-05-07T20:41:44.369Z,9.25
2023-05-07T20:44:12.093Z,6.32
2023-05-07T20:46:39.577Z,7.45
2023-05-07T20:49:07.099Z,6.60
2023-05-07T20:51:34.815Z,5.95
2023-05-07T20:54:02.241Z,8.85
2023-05-07T20:56:29.661Z,8.13
2023-05-07T20:58:56.977Z,7.90
2023-05-07T21:01:24.569Z,6.20
2023-05-07T21:03:54.291Z,7.28
2023-05-07T21:06:21.742Z,6.18
2023-05-07T21:08:49.104Z,7.47
2023-05-07T21:11:16.588Z,6.43
2023-05-07T21:13:43.953Z,6.53
2023-05-07T21:16:11.574Z,6.72
2023-05-07T21:18:39.123Z,5.13
2023-05-07T21:21:09.217Z,6.82
2023-05-07T21:23:37.406Z,7.80
2023-05-07T21:26:04.974Z,7.95
2023-05-07T21:28:32.221Z,6.72
2023-05-07T21:30:59.701Z,6.97
2023-05-07T21:33:27.018Z,7.18
2023-05-07T21:35:54.459Z,10.32
2023-05-07T21:38:21.865Z,6.20
2023-05-07T21:40:49.245Z,7.28
2023-05-07T21:43:16.531Z,9.55
2023-05-07T21:45:44.010Z,6.70
2023-05-07T21:48:11.359Z,11.13
2023-05-07T21:50:38.743Z,6.28
2023-05-07T21:53:05.949Z,10.35
2023-05-07T21:55:33.151Z,5.68
2023-05-07T21:58:05.520Z,7.97
2023-05-07T22:00:33.641Z,5.18
2023-05-07T22:03:01.281Z,7.60
2023-05-07T22:05:28.879Z,9.27
2023-05-07T22:07:57.186Z,6.97
2023-05-07T22:10:24.448Z,8.50
2023-05-07T22:12:51.808Z,8.15
2023-05-07T22:15:19.125Z,7.35
2023-05-07T22:17:46.286Z,8.43
2023-05-07T22:20:13.802Z,11.98
2023-05-07T22:22:44.217Z,10.80
2023-05-07T22:25:11.499Z,6.90
2023-05-07T22:27:39.029Z,7.10
2023-05-07T22:30:07.003Z,4.95
2023-05-07T22:32:34.243Z,7.78
2023-05-07T22:35:01.568Z,8.38
2023-05-07T22:37:28.820Z,5.28
2023-05-07T22:39:56.157Z,6.78
2023-05-07T22:42:23.650Z,6.43
2023-05-07T22:44:53.025Z,11.93
2023-05-07T22:47:20.239Z,8.00
2023-05-07T22:49:47.716Z,7.75
2023-05-07T22:52:15.301Z,6.10
2023-05-07T22:54:42.501Z,6.78
2023-05-07T22:57:09.804Z,8.82
2023-05-07T22:59:37.020Z,8.48
2023-05-07T23:02:05.307Z,8.38
2023-05-07T23:04:32.601Z,7.57
2023-05-07T23:06:59.811Z,6.15
2023-05-07T23:09:27.108Z,6.47
2023-05-07T23:11:54.479Z,6.68
2023-05-07T23:14:23.876Z,8.30
2023-05-07T23:16:52.001Z,7.72
2023-05-07T23:19:19.412Z,9.18
2023-05-07T23:21:46.594Z,9.75
2023-05-07T23:24:13.870Z,7.90
2023-05-07T23:26:41.395Z,6.72
2023-05-07T23:29:08.602Z,7.97
2023-05-07T23:31:36.020Z,6.97
2023-05-07T23:34:03.371Z,5.53
2023-05-07T23:36:31.541Z,6.00
2023-05-07T23:38:59.093Z,9.43
2023-05-07T23:41:26.399Z,5.43
2023-05-07T23:43:53.825Z,6.22
2023-05-07T23:46:21.323Z,8.63
2023-05-07T23:48:48.681Z,12.10
2023-05-07T23:51:16.673Z,12.55
2023-05-07T23:53:43.903Z,7.60
2023-05-07T23:56:11.689Z,9.40
2023-05-07T23:58:38.965Z,11.00
